PASO

Details ICAO PASO
Name Seldovia
Region USA (Alaska)
Timezone America/Anchorage (UTC-8.0)
Plans Departing 0
Arriving 2
Stats Elevation 29 ft / 9 m (AMSL)
Location 59.442439° -151.704050°
Runways 1
Magnetic Variation 15.253° E
Sunrise 2018-05-20 13:23:02 UTC / 2018-05-20 05:23:02 Local
Sunset 2018-05-21 06:46:32 UTC / 2018-05-20 22:46:32 Local
Advertisement - Login to hide

Runways

ID Width Length Bearing (true) Bearing (mag) Surface Threshold Offset Overrun Length
16 60 ft / 18 m 1,846 ft / 563 m 183.00° 167.75° Gravel 0 ft / 0 m 0 ft / 0 m
34 60 ft / 18 m 1,846 ft / 563 m 3.00° 347.75° Gravel 0 ft / 0 m 0 ft / 0 m

Map

Weather


0- 5 10 15 20 25 30 35+ Temperature / ° C

Clouds and Precipitation
Forecast for 2018-05-20 12:00 UTC. Updated an hour ago

Ground ~20,000 ft ~40,000 ft Winds

METAR

PASO 201153Z AUTO 00000KT 10SM FEW044 OVC080 05/04 A2967 RMK AO2 SLP047 60004 70016 T00500039 10072 20050 56015 TSNO

TAF

Not found
Warning: Do not use this data for real-world aviation or navigation. No guarantee of current accuracy is given.